createdAt,value
2023-08-15T00:01:12.031Z,9.50
2023-08-15T00:03:39.129Z,10.98
2023-08-15T00:06:05.965Z,11.82
2023-08-15T00:08:33.082Z,10.65
2023-08-15T00:10:59.979Z,11.20
2023-08-15T00:13:27.029Z,12.00
2023-08-15T00:15:53.852Z,10.23
2023-08-15T00:18:20.986Z,10.95
2023-08-15T00:20:49.354Z,12.13
2023-08-15T00:23:16.914Z,12.02
2023-08-15T00:25:43.902Z,11.07
2023-08-15T00:28:10.872Z,11.63
2023-08-15T00:30:37.791Z,10.55
2023-08-15T00:33:05.049Z,11.90
2023-08-15T00:35:31.891Z,13.07
2023-08-15T00:37:59.076Z,11.80
2023-08-15T00:40:25.980Z,16.40
2023-08-15T00:42:53.149Z,21.20
2023-08-15T00:45:20.002Z,20.50
2023-08-15T00:47:47.287Z,23.98
2023-08-15T00:50:14.554Z,24.13
2023-08-15T00:52:42.249Z,27.85
2023-08-15T00:55:11.039Z,29.02
2023-08-15T00:57:38.244Z,20.83
2023-08-15T01:00:06.168Z,20.85
2023-08-15T01:02:33.577Z,17.15
2023-08-15T01:05:00.535Z,13.80
2023-08-15T01:07:27.751Z,14.10
2023-08-15T01:09:54.557Z,14.23
2023-08-15T01:12:45.212Z,12.32
2023-08-15T01:15:22.439Z,13.38
2023-08-15T01:17:58.047Z,13.07
2023-08-15T01:20:32.103Z,10.73
2023-08-15T01:23:02.143Z,12.15
2023-08-15T01:25:32.125Z,11.02
2023-08-15T01:28:03.249Z,9.57
2023-08-15T01:33:07.312Z,13.02
2023-08-15T01:38:16.146Z,11.32
2023-08-15T01:40:43.906Z,12.45
2023-08-15T01:43:14.842Z,14.20
2023-08-15T01:45:41.778Z,12.85
2023-08-15T01:48:08.985Z,15.75
2023-08-15T01:50:35.829Z,13.18
2023-08-15T01:53:03.352Z,14.80
2023-08-15T01:55:30.285Z,12.77
2023-08-15T01:57:57.405Z,14.25
2023-08-15T02:00:24.340Z,14.60
2023-08-15T02:02:51.544Z,12.07
2023-08-15T02:05:18.584Z,11.52
2023-08-15T02:07:45.860Z,11.68
2023-08-15T02:10:14.315Z,12.55
2023-08-15T02:12:41.310Z,11.07
2023-08-15T02:15:09.302Z,12.80
2023-08-15T02:17:36.218Z,12.30
2023-08-15T02:20:03.561Z,14.75
2023-08-15T02:22:32.843Z,12.48
2023-08-15T02:25:00.274Z,12.05
2023-08-15T02:27:27.287Z,15.05
2023-08-15T02:29:54.404Z,14.15
2023-08-15T02:32:21.288Z,13.45
2023-08-15T02:34:48.441Z,12.57
2023-08-15T02:37:17.006Z,12.82
2023-08-15T02:39:44.263Z,19.27
2023-08-15T02:42:11.162Z,13.05
2023-08-15T02:44:38.221Z,11.68
2023-08-15T02:47:05.310Z,13.77
2023-08-15T02:49:32.420Z,11.55
2023-08-15T02:51:59.395Z,13.05
2023-08-15T02:54:26.585Z,14.80
2023-08-15T02:56:53.448Z,12.60
2023-08-15T02:59:20.476Z,13.27
2023-08-15T03:01:49.090Z,14.10
2023-08-15T03:04:16.184Z,13.85
2023-08-15T03:06:43.982Z,13.57
2023-08-15T03:09:11.141Z,11.57
2023-08-15T03:11:38.038Z,12.15
2023-08-15T03:14:05.131Z,13.73
2023-08-15T03:16:32.185Z,13.65
2023-08-15T03:18:59.637Z,11.73
2023-08-15T03:21:26.748Z,16.27
2023-08-15T03:23:54.094Z,11.95
2023-08-15T03:26:20.979Z,12.27
2023-08-15T03:28:48.676Z,11.40
2023-08-15T03:31:15.634Z,13.25
2023-08-15T03:33:43.106Z,12.18
2023-08-15T03:36:10.092Z,12.07
2023-08-15T03:38:37.485Z,12.25
2023-08-15T03:41:06.285Z,12.70
2023-08-15T03:43:37.436Z,13.48
2023-08-15T03:48:32.026Z,11.32
2023-08-15T03:51:00.228Z,13.35
2023-08-15T03:53:28.085Z,12.18
2023-08-15T03:55:55.744Z,12.15
2023-08-15T03:58:24.028Z,13.93
2023-08-15T04:00:51.289Z,13.82
2023-08-15T04:03:18.621Z,12.68
2023-08-15T04:05:46.377Z,12.45
2023-08-15T04:08:14.188Z,11.48
2023-08-15T04:10:41.078Z,13.25
2023-08-15T04:13:09.129Z,12.88
2023-08-15T04:15:36.958Z,13.18
2023-08-15T04:18:06.166Z,13.85
2023-08-15T04:20:33.550Z,11.90
2023-08-15T04:23:00.663Z,12.55
2023-08-15T04:25:30.047Z,12.70
2023-08-15T04:27:58.727Z,10.75
2023-08-15T04:30:25.820Z,13.88
2023-08-15T04:32:53.268Z,10.32
2023-08-15T04:35:20.423Z,11.35
2023-08-15T04:37:47.992Z,10.98
2023-08-15T04:40:15.078Z,11.30
2023-08-15T04:42:42.756Z,11.48
2023-08-15T04:45:10.236Z,11.40
2023-08-15T04:47:38.035Z,14.15
2023-08-15T04:50:06.588Z,11.60
2023-08-15T04:52:33.760Z,13.85
2023-08-15T04:55:00.728Z,12.98
2023-08-15T04:57:27.895Z,12.00
2023-08-15T04:59:54.857Z,12.73
2023-08-15T05:02:21.920Z,12.82
2023-08-15T05:04:48.974Z,13.82
2023-08-15T05:07:16.135Z,17.75
2023-08-15T05:09:44.157Z,12.25
2023-08-15T05:12:11.281Z,14.02
2023-08-15T05:14:38.041Z,15.43
2023-08-15T05:17:05.881Z,18.10
2023-08-15T05:19:33.742Z,12.75
2023-08-15T05:22:01.071Z,14.60
2023-08-15T05:24:28.075Z,17.27
2023-08-15T05:26:55.198Z,13.80
2023-08-15T05:29:22.262Z,14.68
2023-08-15T05:31:49.332Z,15.38
2023-08-15T05:34:16.197Z,10.80
2023-08-15T05:36:43.307Z,10.98
2023-08-15T05:39:10.151Z,12.43
2023-08-15T05:41:37.245Z,10.80
2023-08-15T05:44:04.347Z,12.25
2023-08-15T05:46:31.516Z,12.13
2023-08-15T05:48:58.816Z,13.23
2023-08-15T05:51:26.231Z,14.50
2023-08-15T05:53:53.277Z,12.45
2023-08-15T05:56:20.488Z,13.02
2023-08-15T05:58:47.830Z,12.45
2023-08-15T06:01:15.199Z,15.25
2023-08-15T06:03:51.925Z,11.40
2023-08-15T06:06:20.341Z,12.68
2023-08-15T06:08:49.189Z,13.02
2023-08-15T06:11:16.743Z,13.82
2023-08-15T06:13:43.916Z,12.05
2023-08-15T06:16:13.493Z,15.38
2023-08-15T06:18:40.889Z,13.93
2023-08-15T06:21:08.034Z,16.20
2023-08-15T06:23:36.465Z,11.23
2023-08-15T06:26:03.800Z,14.98
2023-08-15T06:28:30.971Z,12.43
2023-08-15T06:30:58.346Z,14.60
2023-08-15T06:33:25.288Z,12.57
2023-08-15T06:35:52.539Z,12.48
2023-08-15T06:38:19.566Z,14.23
2023-08-15T06:40:47.000Z,13.80
2023-08-15T06:43:13.909Z,14.68
2023-08-15T06:45:41.194Z,13.10
2023-08-15T06:48:08.155Z,11.07
2023-08-15T06:50:35.497Z,13.48
2023-08-15T06:53:02.439Z,14.70
2023-08-15T06:55:29.724Z,13.23
2023-08-15T06:57:56.805Z,11.63
2023-08-15T07:00:24.047Z,12.45
2023-08-15T07:02:51.606Z,12.75
2023-08-15T07:05:19.003Z,12.00
2023-08-15T07:07:46.336Z,12.13
2023-08-15T07:10:13.980Z,15.18
2023-08-15T07:12:40.907Z,10.48
2023-08-15T07:15:08.666Z,15.45
2023-08-15T07:17:35.639Z,12.43
2023-08-15T07:20:06.218Z,13.00
2023-08-15T07:22:33.627Z,11.18
2023-08-15T07:25:01.807Z,14.73
2023-08-15T07:27:28.973Z,11.45
2023-08-15T07:29:56.355Z,12.05
2023-08-15T07:32:23.397Z,12.45
2023-08-15T07:34:50.827Z,10.98
2023-08-15T07:37:18.000Z,11.50
2023-08-15T07:39:45.265Z,11.38
2023-08-15T07:42:12.897Z,9.30
2023-08-15T07:44:41.618Z,10.45
2023-08-15T07:47:08.447Z,7.82
2023-08-15T07:49:39.165Z,8.32
2023-08-15T07:52:06.921Z,8.43
2023-08-15T07:54:34.215Z,7.00
2023-08-15T07:57:01.008Z,7.95
2023-08-15T07:59:29.382Z,6.40
2023-08-15T08:01:56.541Z,8.68
2023-08-15T08:04:25.437Z,8.23
2023-08-15T08:06:52.529Z,8.25
2023-08-15T08:09:19.774Z,8.18
2023-08-15T08:11:46.698Z,9.40
2023-08-15T08:14:13.973Z,6.43
2023-08-15T08:16:41.178Z,8.82
2023-08-15T08:19:08.294Z,7.65
2023-08-15T08:21:35.346Z,7.43
2023-08-15T08:24:02.537Z,6.00
2023-08-15T08:26:30.502Z,7.43
2023-08-15T08:28:57.711Z,8.20
2023-08-15T08:31:24.655Z,7.22
2023-08-15T08:33:52.819Z,7.75
2023-08-15T08:36:19.768Z,9.57
2023-08-15T08:38:47.099Z,8.07
2023-08-15T08:41:14.839Z,6.15
2023-08-15T08:43:42.456Z,6.03
2023-08-15T08:46:09.972Z,6.13
2023-08-15T08:48:39.137Z,7.43
2023-08-15T08:51:07.472Z,6.75
2023-08-15T08:53:34.813Z,6.38
2023-08-15T08:56:02.782Z,8.60
2023-08-15T08:58:32.089Z,8.73
2023-08-15T09:01:02.100Z,6.53
2023-08-15T09:03:29.500Z,6.97
2023-08-15T09:05:57.617Z,7.75
2023-08-15T09:08:24.733Z,7.47
2023-08-15T09:10:52.764Z,7.30
2023-08-15T09:13:26.473Z,6.65
2023-08-15T09:15:59.525Z,6.70
2023-08-15T09:18:34.287Z,8.10
2023-08-15T09:21:01.305Z,6.50
2023-08-15T09:23:28.523Z,6.78
2023-08-15T09:25:57.586Z,6.85
2023-08-15T09:28:25.103Z,5.85
2023-08-15T09:30:53.944Z,6.40
2023-08-15T09:33:21.650Z,8.80
2023-08-15T09:35:58.336Z,6.13
2023-08-15T09:41:43.379Z,7.20
2023-08-15T09:44:10.990Z,6.15
2023-08-15T09:46:38.206Z,8.13
2023-08-15T09:49:07.068Z,8.98
2023-08-15T09:51:35.890Z,6.93
2023-08-15T09:54:03.924Z,6.65
2023-08-15T09:56:30.829Z,5.50
2023-08-15T09:58:58.083Z,5.75
2023-08-15T10:01:30.196Z,6.70
2023-08-15T10:03:59.963Z,6.63
2023-08-15T10:06:27.149Z,8.68
2023-08-15T10:08:54.480Z,6.68
2023-08-15T10:11:21.781Z,6.50
2023-08-15T10:13:51.514Z,6.40
2023-08-15T10:16:19.179Z,7.00
2023-08-15T10:19:00.294Z,7.43
2023-08-15T10:21:52.355Z,7.93
2023-08-15T10:24:19.506Z,5.60
2023-08-15T10:26:47.200Z,6.97
2023-08-15T10:29:15.528Z,5.93
2023-08-15T10:31:42.885Z,5.18
2023-08-15T10:34:13.042Z,8.18
2023-08-15T10:36:43.947Z,5.45
2023-08-15T10:39:15.552Z,6.88
2023-08-15T10:41:43.588Z,6.93
2023-08-15T10:44:11.596Z,6.82
2023-08-15T10:46:38.953Z,5.35
2023-08-15T10:49:12.859Z,5.30
2023-08-15T10:51:42.454Z,7.32
2023-08-15T10:54:13.322Z,6.00
2023-08-15T10:56:41.983Z,7.65
2023-08-15T10:59:14.544Z,8.40
2023-08-15T11:01:43.440Z,7.35
2023-08-15T11:04:14.965Z,6.03
2023-08-15T11:06:48.916Z,5.13
2023-08-15T11:09:17.898Z,6.78
2023-08-15T11:11:46.687Z,5.15
2023-08-15T11:14:19.053Z,6.90
2023-08-15T11:16:47.901Z,5.78
2023-08-15T11:19:19.901Z,6.85
2023-08-15T11:21:50.205Z,5.05
2023-08-15T11:24:17.537Z,4.85
2023-08-15T11:26:44.617Z,7.28
2023-08-15T11:29:14.069Z,6.72
2023-08-15T11:31:42.338Z,5.75
2023-08-15T11:34:12.462Z,8.43
2023-08-15T11:36:40.012Z,5.50
2023-08-15T11:39:12.756Z,5.80
2023-08-15T11:41:40.079Z,9.00
2023-08-15T11:44:07.305Z,5.70
2023-08-15T11:46:52.726Z,12.57
2023-08-15T11:49:22.799Z,6.30
2023-08-15T11:51:50.051Z,5.43
2023-08-15T11:54:17.816Z,4.95
2023-08-15T11:56:50.687Z,6.07
2023-08-15T11:59:22.429Z,5.63
2023-08-15T12:01:50.498Z,5.25
2023-08-15T12:04:18.768Z,9.05
2023-08-15T12:06:45.960Z,4.90
2023-08-15T12:09:14.037Z,4.90
2023-08-15T12:11:41.311Z,8.45
2023-08-15T12:14:22.516Z,4.95
2023-08-15T12:16:49.743Z,5.15
2023-08-15T12:19:21.075Z,5.40
2023-08-15T12:21:51.019Z,6.30
2023-08-15T12:24:18.143Z,4.72
2023-08-15T12:26:45.123Z,5.68
2023-08-15T12:29:12.252Z,4.70
2023-08-15T12:31:41.212Z,7.43
2023-08-15T12:34:08.485Z,7.15
2023-08-15T12:36:35.486Z,7.03
2023-08-15T12:39:02.653Z,6.07
2023-08-15T12:41:29.768Z,4.85
2023-08-15T12:43:56.959Z,7.32
2023-08-15T12:46:24.285Z,6.85
2023-08-15T12:48:51.423Z,5.82
2023-08-15T12:51:18.353Z,5.43
2023-08-15T12:53:45.502Z,6.47
2023-08-15T12:56:12.346Z,5.38
2023-08-15T12:58:39.549Z,4.97
2023-08-15T13:01:06.403Z,6.97
2023-08-15T13:03:34.030Z,5.95
2023-08-15T13:06:00.973Z,5.65
2023-08-15T13:08:28.488Z,7.60
2023-08-15T13:10:57.544Z,8.95
2023-08-15T13:13:25.175Z,6.70
2023-08-15T13:15:51.935Z,6.40
2023-08-15T13:18:19.097Z,6.40
2023-08-15T13:20:46.120Z,5.97
2023-08-15T13:23:13.474Z,5.47
2023-08-15T13:25:40.509Z,4.93
2023-08-15T13:28:07.761Z,4.70
2023-08-15T13:30:34.882Z,6.88
2023-08-15T13:33:02.276Z,5.13
2023-08-15T13:35:29.438Z,4.05
2023-08-15T13:37:56.709Z,3.63
2023-08-15T13:40:23.980Z,4.40
2023-08-15T13:42:51.702Z,6.18
2023-08-15T13:45:18.848Z,4.63
2023-08-15T13:47:46.206Z,5.10
2023-08-15T13:50:13.421Z,6.07
2023-08-15T13:52:40.675Z,4.65
2023-08-15T13:55:08.246Z,4.72
2023-08-15T13:57:35.425Z,4.18
2023-08-15T14:00:04.434Z,4.43
2023-08-15T14:02:33.770Z,5.20
2023-08-15T14:05:03.688Z,5.72
2023-08-15T14:07:30.824Z,3.88
2023-08-15T14:09:57.694Z,5.90
2023-08-15T14:12:27.142Z,4.20
2023-08-15T14:14:54.216Z,5.32
2023-08-15T14:17:21.520Z,4.63
2023-08-15T14:19:48.494Z,7.55
2023-08-15T14:22:16.311Z,6.47
2023-08-15T14:24:48.010Z,5.28
2023-08-15T14:27:17.603Z,5.25
2023-08-15T14:29:45.816Z,5.50
2023-08-15T14:32:13.778Z,6.13
2023-08-15T14:34:40.657Z,6.32
2023-08-15T14:37:07.779Z,5.28
2023-08-15T14:39:34.994Z,5.00
2023-08-15T14:42:02.161Z,5.90
2023-08-15T14:44:31.923Z,5.07
2023-08-15T14:46:59.620Z,5.43
2023-08-15T14:49:26.494Z,5.22
2023-08-15T14:51:54.238Z,5.75
2023-08-15T14:54:21.220Z,5.18
2023-08-15T14:56:48.464Z,4.47
2023-08-15T14:59:15.416Z,9.13
2023-08-15T15:01:42.642Z,6.68
2023-08-15T15:04:09.521Z,6.88
2023-08-15T15:06:36.979Z,6.55
2023-08-15T15:09:04.031Z,6.43
2023-08-15T15:11:31.153Z,5.10
2023-08-15T15:13:58.021Z,6.25
2023-08-15T15:16:25.289Z,5.00
2023-08-15T15:18:52.318Z,6.90
2023-08-15T15:21:19.477Z,4.65
2023-08-15T15:23:46.525Z,5.35
2023-08-15T15:26:13.615Z,7.43
2023-08-15T15:28:40.732Z,6.35
2023-08-15T15:31:08.283Z,5.40
2023-08-15T15:33:35.389Z,18.77
2023-08-15T15:36:02.412Z,9.02
2023-08-15T15:38:29.221Z,7.47
2023-08-15T15:40:56.408Z,11.20
2023-08-15T15:43:23.209Z,10.00
2023-08-15T15:45:50.544Z,10.43
2023-08-15T15:48:17.634Z,5.32
2023-08-15T15:50:45.315Z,8.07
2023-08-15T15:53:12.334Z,6.50
2023-08-15T15:55:39.695Z,6.18
2023-08-15T15:58:06.583Z,7.75
2023-08-15T16:00:34.129Z,7.10
2023-08-15T16:03:01.045Z,7.88
2023-08-15T16:05:28.388Z,5.70
2023-08-15T16:07:55.965Z,6.43
2023-08-15T16:10:23.305Z,7.07
2023-08-15T16:12:51.143Z,6.60
2023-08-15T16:15:20.148Z,5.90
2023-08-15T16:17:47.426Z,7.65
2023-08-15T16:20:14.972Z,5.75
2023-08-15T16:22:43.298Z,12.52
2023-08-15T16:25:10.941Z,5.78
2023-08-15T16:27:38.035Z,7.07
2023-08-15T16:30:17.092Z,5.80
2023-08-15T16:32:49.473Z,8.10
2023-08-15T16:35:16.962Z,5.95
2023-08-15T16:37:46.356Z,7.72
2023-08-15T16:40:14.383Z,6.32
2023-08-15T16:42:41.610Z,6.57
2023-08-15T16:45:09.393Z,6.28
2023-08-15T16:47:36.259Z,5.53
2023-08-15T16:50:03.609Z,6.13
2023-08-15T16:52:30.532Z,8.40
2023-08-15T16:54:57.638Z,7.72
2023-08-15T16:57:24.785Z,6.35
2023-08-15T16:59:52.360Z,6.35
2023-08-15T17:02:19.368Z,5.95
2023-08-15T17:04:46.622Z,6.70
2023-08-15T17:07:13.509Z,6.40
2023-08-15T17:09:40.832Z,7.90
2023-08-15T17:12:08.360Z,8.50
2023-08-15T17:14:35.521Z,7.93
2023-08-15T17:17:02.676Z,7.63
2023-08-15T17:19:30.236Z,7.43
2023-08-15T17:21:57.261Z,6.00
2023-08-15T17:24:24.425Z,8.52
2023-08-15T17:26:51.571Z,5.97
2023-08-15T17:29:18.679Z,8.05
2023-08-15T17:31:46.426Z,9.77
2023-08-15T17:34:13.543Z,9.25
2023-08-15T17:36:40.380Z,7.00
2023-08-15T17:39:07.844Z,7.90
2023-08-15T17:41:34.717Z,6.78
2023-08-15T17:44:01.865Z,7.60
2023-08-15T17:46:28.778Z,7.10
2023-08-15T17:48:55.968Z,7.30
2023-08-15T17:51:22.812Z,6.65
2023-08-15T17:53:49.842Z,9.00
2023-08-15T17:56:16.836Z,8.50
2023-08-15T17:58:51.522Z,7.95
2023-08-15T18:01:19.044Z,7.60
2023-08-15T18:03:47.409Z,10.27
2023-08-15T18:06:15.136Z,9.32
2023-08-15T18:08:42.331Z,6.47
2023-08-15T18:11:09.494Z,7.85
2023-08-15T18:13:37.689Z,7.68
2023-08-15T18:16:05.039Z,11.88
2023-08-15T18:18:32.336Z,6.63
2023-08-15T18:20:59.286Z,6.97
2023-08-15T18:23:26.647Z,6.65
2023-08-15T18:25:53.966Z,7.70
2023-08-15T18:28:21.185Z,7.38
2023-08-15T18:30:48.153Z,12.48
2023-08-15T18:33:15.669Z,8.15
2023-08-15T18:35:43.643Z,10.35
2023-08-15T18:38:11.152Z,7.75
2023-08-15T18:40:41.200Z,8.80
2023-08-15T18:43:09.496Z,6.80
2023-08-15T18:45:44.428Z,7.88
2023-08-15T18:48:13.031Z,7.93
2023-08-15T18:50:43.725Z,8.45
2023-08-15T18:53:11.485Z,7.72
2023-08-15T18:55:39.896Z,7.80
2023-08-15T18:58:07.930Z,7.45
2023-08-15T19:00:35.035Z,7.03
2023-08-15T19:03:02.527Z,6.80
2023-08-15T19:05:29.517Z,8.65
2023-08-15T19:07:57.077Z,8.77
2023-08-15T19:10:24.239Z,11.38
2023-08-15T19:12:51.479Z,9.77
2023-08-15T19:15:20.985Z,10.25
2023-08-15T19:17:52.031Z,8.60
2023-08-15T19:20:22.372Z,8.70
2023-08-15T19:25:17.317Z,7.95
2023-08-15T19:27:46.599Z,8.18
2023-08-15T19:30:13.515Z,9.75
2023-08-15T19:32:40.654Z,7.57
2023-08-15T19:35:08.333Z,7.43
2023-08-15T19:37:38.457Z,8.88
2023-08-15T19:40:10.158Z,7.93
2023-08-15T19:42:44.424Z,8.13
2023-08-15T19:45:12.718Z,7.90
2023-08-15T19:47:41.164Z,7.75
2023-08-15T19:50:09.158Z,7.97
2023-08-15T19:52:36.909Z,9.02
2023-08-15T19:55:04.677Z,8.38
2023-08-15T19:57:33.386Z,8.07
2023-08-15T20:00:01.251Z,7.28
2023-08-15T20:02:28.639Z,8.13
2023-08-15T20:04:56.221Z,9.85
2023-08-15T20:07:23.449Z,8.15
2023-08-15T20:10:04.011Z,9.48
2023-08-15T20:12:37.581Z,9.73
2023-08-15T20:15:05.125Z,9.35
2023-08-15T20:17:33.049Z,9.48
2023-08-15T20:20:00.271Z,9.77
2023-08-15T20:22:28.014Z,8.18
2023-08-15T20:24:55.997Z,9.98
2023-08-15T20:27:23.164Z,8.88
2023-08-15T20:29:51.819Z,7.88
2023-08-15T20:32:19.053Z,10.00
2023-08-15T20:34:46.035Z,9.30
2023-08-15T20:37:13.858Z,11.25
2023-08-15T20:39:40.720Z,9.48
2023-08-15T20:42:10.102Z,10.68
2023-08-15T20:44:37.313Z,13.73
2023-08-15T20:47:04.765Z,10.13
2023-08-15T20:49:31.762Z,10.93
2023-08-15T20:52:01.599Z,9.20
2023-08-15T20:54:29.509Z,11.00
2023-08-15T20:56:56.738Z,9.32
2023-08-15T20:59:23.540Z,9.85
2023-08-15T21:01:50.679Z,8.70
2023-08-15T21:04:17.527Z,10.77
2023-08-15T21:06:44.648Z,10.25
2023-08-15T21:09:11.980Z,9.38
2023-08-15T21:11:39.201Z,9.52
2023-08-15T21:14:06.047Z,9.20
2023-08-15T21:16:33.283Z,9.68
2023-08-15T21:19:00.596Z,9.05
2023-08-15T21:21:27.696Z,10.63
2023-08-15T21:23:54.608Z,10.30
2023-08-15T21:26:21.779Z,9.48
2023-08-15T21:28:48.749Z,11.88
2023-08-15T21:31:15.923Z,11.52
2023-08-15T21:33:42.815Z,15.52
2023-08-15T21:36:09.939Z,13.68
2023-08-15T21:38:36.810Z,12.50
2023-08-15T21:41:04.104Z,10.98
2023-08-15T21:43:30.860Z,11.75
2023-08-15T21:45:58.050Z,13.60
2023-08-15T21:48:25.105Z,12.93
2023-08-15T21:50:52.212Z,13.43
2023-08-15T21:53:19.006Z,11.80
2023-08-15T21:55:46.552Z,14.23
2023-08-15T21:58:13.390Z,13.25
2023-08-15T22:00:40.685Z,12.90
2023-08-15T22:03:07.628Z,14.13
2023-08-15T22:05:34.850Z,13.07
2023-08-15T22:08:01.641Z,12.15
2023-08-15T22:10:28.754Z,11.75
2023-08-15T22:12:55.835Z,10.70
2023-08-15T22:15:24.846Z,10.45
2023-08-15T22:18:01.023Z,12.10
2023-08-15T22:20:38.988Z,14.20
2023-08-15T22:23:05.811Z,12.15
2023-08-15T22:25:32.943Z,13.93
2023-08-15T22:27:59.969Z,11.00
2023-08-15T22:30:27.466Z,13.80
2023-08-15T22:32:54.649Z,12.50
2023-08-15T22:35:35.395Z,12.60
2023-08-15T22:38:02.364Z,11.93
2023-08-15T22:40:29.426Z,10.95
2023-08-15T22:42:56.228Z,12.73
2023-08-15T22:45:23.982Z,11.68
2023-08-15T22:47:50.918Z,10.73
2023-08-15T22:50:18.108Z,13.38
2023-08-15T22:52:45.067Z,15.57
2023-08-15T22:55:12.073Z,11.02
2023-08-15T22:57:38.839Z,10.10
2023-08-15T23:00:06.799Z,12.50
2023-08-15T23:02:33.619Z,11.35
2023-08-15T23:05:00.896Z,12.40
2023-08-15T23:07:27.698Z,13.57
2023-08-15T23:09:54.830Z,12.55
2023-08-15T23:12:21.804Z,12.43
2023-08-15T23:14:48.924Z,11.50
2023-08-15T23:17:15.796Z,11.63
2023-08-15T23:19:42.963Z,12.23
2023-08-15T23:22:09.713Z,10.98
2023-08-15T23:24:36.877Z,10.98
2023-08-15T23:27:03.950Z,10.43
2023-08-15T23:29:31.578Z,11.30
2023-08-15T23:31:59.839Z,11.20
2023-08-15T23:34:27.129Z,13.45
2023-08-15T23:36:54.044Z,9.82
2023-08-15T23:39:22.421Z,11.25
2023-08-15T23:41:49.775Z,11.88
2023-08-15T23:44:20.197Z,13.40
2023-08-15T23:46:48.799Z,10.55
2023-08-15T23:49:16.306Z,11.20
2023-08-15T23:51:43.179Z,11.48
2023-08-15T23:54:10.323Z,10.48
2023-08-15T23:56:37.362Z,14.13
2023-08-15T23:59:04.550Z,12.48
